createdAt,value
2023-05-04T00:01:44.509Z,7.25
2023-05-04T00:06:49.002Z,7.19
2023-05-04T00:11:51.749Z,7.10
2023-05-04T00:16:54.443Z,7.11
2023-05-04T00:21:58.529Z,7.01
2023-05-04T00:27:02.287Z,6.96
2023-05-04T00:32:06.056Z,6.96
2023-05-04T00:37:10.168Z,6.96
2023-05-04T00:42:12.957Z,6.98
2023-05-04T00:47:16.803Z,7.00
2023-05-04T00:52:22.264Z,7.02
2023-05-04T00:57:25.080Z,6.98
2023-05-04T01:02:27.822Z,6.97
2023-05-04T01:07:40.964Z,6.95
2023-05-04T01:12:50.120Z,7.02
2023-05-04T01:17:52.932Z,7.06
2023-05-04T01:22:57.192Z,7.04
2023-05-04T01:28:08.710Z,7.03
2023-05-04T01:33:12.256Z,6.99
2023-05-04T01:38:16.550Z,6.94
2023-05-04T01:43:19.312Z,6.91
2023-05-04T01:48:22.199Z,6.84
2023-05-04T01:53:26.778Z,6.77
2023-05-04T01:58:29.628Z,6.72
2023-05-04T02:03:32.452Z,6.66
2023-05-04T02:08:36.881Z,6.63
2023-05-04T02:13:39.714Z,6.59
2023-05-04T02:18:42.613Z,6.47
2023-05-04T02:23:46.669Z,6.35
2023-05-04T02:28:49.400Z,6.28
2023-05-04T02:33:53.566Z,6.12
2023-05-04T02:39:00.297Z,6.07
2023-05-04T02:44:03.151Z,6.03
2023-05-04T02:49:08.098Z,6.05
2023-05-04T02:54:12.254Z,6.13
2023-05-04T02:59:15.052Z,6.11
2023-05-04T03:04:17.939Z,6.10
2023-05-04T03:09:22.074Z,6.01
2023-05-04T03:14:25.101Z,6.06
2023-05-04T03:19:28.598Z,6.07
2023-05-04T03:24:33.743Z,6.05
2023-05-04T03:29:37.024Z,6.02
2023-05-04T03:34:41.212Z,5.96
2023-05-04T03:39:46.320Z,5.93
2023-05-04T03:44:49.160Z,5.89
2023-05-04T03:49:52.681Z,5.81
2023-05-04T03:54:58.116Z,5.74
2023-05-04T04:00:01.285Z,5.67
2023-05-04T04:05:06.599Z,5.68
2023-05-04T04:10:12.695Z,5.66
2023-05-04T04:15:16.300Z,5.69
2023-05-04T04:20:19.141Z,5.75
2023-05-04T04:25:24.266Z,5.85
2023-05-04T04:30:27.218Z,6.03
2023-05-04T04:35:33.429Z,6.19
2023-05-04T04:40:38.228Z,6.38
2023-05-04T04:45:41.427Z,6.56
2023-05-04T04:50:44.953Z,6.79
2023-05-04T04:55:49.371Z,7.01
2023-05-04T05:00:52.810Z,7.19
2023-05-04T05:05:56.274Z,7.41
2023-05-04T05:11:00.464Z,7.65
2023-05-04T05:16:03.728Z,7.83
2023-05-04T05:21:07.465Z,8.02
2023-05-04T05:26:11.788Z,8.25
2023-05-04T05:31:14.589Z,8.42
2023-05-04T05:36:17.427Z,8.63
2023-05-04T05:41:22.650Z,8.73
2023-05-04T05:46:25.866Z,9.04
2023-05-04T05:51:28.605Z,9.18
2023-05-04T05:56:34.486Z,9.51
2023-05-04T06:01:37.221Z,9.78
2023-05-04T06:06:44.314Z,9.99
2023-05-04T06:11:54.751Z,10.23
2023-05-04T06:16:59.881Z,10.75
2023-05-04T06:22:05.431Z,11.01
2023-05-04T06:27:10.225Z,11.40
2023-05-04T06:32:14.982Z,11.58
2023-05-04T06:37:18.643Z,11.75
2023-05-04T06:42:24.417Z,12.15
2023-05-04T06:47:31.308Z,12.09
2023-05-04T06:52:34.140Z,12.70
2023-05-04T06:57:38.197Z,12.42
2023-05-04T07:02:45.268Z,13.15
2023-05-04T07:07:51.520Z,13.31
2023-05-04T07:12:56.019Z,13.42
2023-05-04T07:18:01.334Z,13.66
2023-05-04T07:23:05.368Z,13.87
2023-05-04T07:28:09.492Z,13.58
2023-05-04T07:33:14.508Z,14.17
2023-05-04T07:38:17.266Z,14.12
2023-05-04T07:43:23.034Z,14.28
2023-05-04T07:48:27.576Z,14.60
2023-05-04T07:53:31.761Z,14.41
2023-05-04T07:58:35.935Z,14.92
2023-05-04T08:03:38.660Z,15.33
2023-05-04T08:08:42.435Z,15.71
2023-05-04T08:13:47.748Z,15.98
2023-05-04T08:18:52.239Z,15.66
2023-05-04T08:23:57.158Z,15.69
2023-05-04T08:29:08.361Z,15.93
2023-05-04T08:34:12.086Z,16.30
2023-05-04T08:39:14.856Z,16.38
2023-05-04T08:44:24.051Z,16.49
2023-05-04T08:49:28.367Z,16.71
2023-05-04T08:54:31.227Z,17.32
2023-05-04T08:59:39.161Z,17.42
2023-05-04T09:04:43.435Z,17.28
2023-05-04T09:09:50.938Z,17.41
2023-05-04T09:14:56.984Z,17.91
2023-05-04T09:20:02.048Z,17.77
2023-05-04T09:25:10.538Z,17.57
2023-05-04T09:30:15.476Z,18.33
2023-05-04T09:35:32.055Z,18.23
2023-05-04T09:40:40.903Z,18.71
2023-05-04T09:45:46.392Z,18.40
2023-05-04T09:50:52.700Z,18.54
2023-05-04T09:56:10.671Z,18.58
2023-05-04T10:01:15.128Z,18.63
2023-05-04T10:06:21.928Z,18.79
2023-05-04T10:11:27.704Z,19.05
2023-05-04T10:16:48.005Z,19.28
2023-05-04T10:22:06.220Z,19.46
2023-05-04T10:27:23.445Z,19.58
2023-05-04T10:32:41.251Z,20.04
2023-05-04T10:37:56.031Z,20.47
2023-05-04T10:43:06.310Z,20.25
2023-05-04T10:48:17.266Z,20.35
2023-05-04T10:53:34.131Z,20.57
2023-05-04T10:58:41.732Z,20.40
2023-05-04T11:03:48.325Z,20.51
2023-05-04T11:09:07.139Z,21.00
2023-05-04T11:14:17.207Z,21.39
2023-05-04T11:19:24.472Z,21.41
2023-05-04T11:24:33.869Z,21.84
2023-05-04T11:29:54.365Z,21.99
2023-05-04T11:35:06.004Z,22.61
2023-05-04T11:40:19.013Z,22.27
2023-05-04T11:45:28.533Z,22.28
2023-05-04T11:50:44.131Z,22.53
2023-05-04T11:55:50.821Z,23.25
2023-05-04T12:01:07.705Z,23.34
2023-05-04T12:06:16.074Z,24.13
2023-05-04T12:11:27.103Z,25.31
2023-05-04T12:16:32.117Z,25.20
2023-05-04T12:21:52.920Z,25.56
2023-05-04T12:26:57.830Z,26.26
2023-05-04T12:32:11.608Z,26.25
2023-05-04T12:37:29.902Z,25.64
2023-05-04T12:42:42.487Z,26.29
2023-05-04T12:47:47.818Z,27.17
2023-05-04T12:53:01.163Z,26.67
2023-05-04T12:58:08.915Z,27.08
2023-05-04T13:03:18.186Z,27.89
2023-05-04T13:08:33.056Z,27.06
2023-05-04T13:13:40.468Z,26.48
2023-05-04T13:18:48.034Z,26.58
2023-05-04T13:23:57.496Z,27.93
2023-05-04T13:29:07.028Z,27.59
2023-05-04T13:34:10.285Z,27.62
2023-05-04T13:39:14.476Z,28.22
2023-05-04T13:44:17.222Z,28.48
2023-05-04T13:49:21.688Z,28.48
2023-05-04T13:54:27.687Z,28.25
2023-05-04T13:59:31.038Z,28.77
2023-05-04T14:04:37.511Z,29.58
2023-05-04T14:09:45.489Z,32.23
2023-05-04T14:14:48.329Z,31.87
2023-05-04T14:19:51.069Z,30.33
2023-05-04T14:24:55.270Z,30.42
2023-05-04T14:29:58.170Z,29.50
2023-05-04T14:35:06.435Z,30.27
2023-05-04T14:40:11.671Z,29.46
2023-05-04T14:45:14.780Z,31.26
2023-05-04T14:50:17.571Z,31.28
2023-05-04T14:55:21.883Z,29.89
2023-05-04T15:00:26.016Z,30.38
2023-05-04T15:05:28.698Z,31.38
2023-05-04T15:10:33.815Z,31.58
2023-05-04T15:15:39.742Z,32.08
2023-05-04T15:20:42.735Z,31.96
2023-05-04T15:25:46.792Z,33.43
2023-05-04T15:30:49.724Z,34.18
2023-05-04T15:35:52.526Z,33.28
2023-05-04T15:40:56.591Z,31.24
2023-05-04T15:45:59.379Z,30.21
2023-05-04T15:51:02.395Z,29.03
2023-05-04T15:56:07.832Z,31.59
2023-05-04T16:01:14.647Z,31.39
2023-05-04T16:06:18.812Z,32.16
2023-05-04T16:11:22.877Z,33.17
2023-05-04T16:16:25.940Z,33.49
2023-05-04T16:21:29.103Z,32.91
2023-05-04T16:26:33.127Z,33.38
2023-05-04T16:31:36.671Z,33.05
2023-05-04T16:36:39.511Z,31.99
2023-05-04T16:41:46.605Z,33.02
2023-05-04T16:46:51.057Z,33.92
2023-05-04T16:51:55.339Z,30.05
2023-05-04T16:56:59.673Z,32.67
2023-05-04T17:02:02.989Z,33.31
2023-05-04T17:07:09.430Z,32.44
2023-05-04T17:12:16.186Z,32.03
2023-05-04T17:17:19.221Z,31.23
2023-05-04T17:22:21.940Z,30.56
2023-05-04T17:27:26.459Z,27.64
2023-05-04T17:32:29.676Z,26.75
2023-05-04T17:37:32.931Z,25.04
2023-05-04T17:42:37.255Z,24.26
2023-05-04T17:47:40.100Z,23.51
2023-05-04T17:52:45.382Z,22.88
2023-05-04T17:57:49.931Z,22.76
2023-05-04T18:02:52.756Z,22.27
2023-05-04T18:13:00.457Z,21.84
2023-05-04T18:18:03.316Z,21.63
2023-05-04T18:23:06.582Z,21.33
2023-05-04T18:28:10.948Z,20.71
2023-05-04T18:33:15.036Z,20.37
2023-05-04T18:38:18.680Z,20.24
2023-05-04T18:43:22.747Z,20.04
2023-05-04T18:48:27.847Z,19.76
2023-05-04T18:53:34.176Z,19.60
2023-05-04T18:58:38.995Z,19.33
2023-05-04T19:03:41.806Z,19.12
2023-05-04T19:08:46.613Z,18.90
2023-05-04T19:13:51.022Z,18.57
2023-05-04T19:18:54.088Z,18.36
2023-05-04T19:23:58.044Z,17.96
2023-05-04T19:29:03.089Z,17.68
2023-05-04T19:34:08.062Z,17.49
2023-05-04T19:39:10.902Z,17.31
2023-05-04T19:44:15.095Z,17.22
2023-05-04T19:49:17.889Z,17.04
2023-05-04T19:54:20.685Z,16.90
2023-05-04T19:59:25.033Z,16.77
2023-05-04T20:04:27.805Z,16.63
2023-05-04T20:09:32.205Z,16.48
2023-05-04T20:14:38.212Z,16.30
2023-05-04T20:19:42.952Z,16.15
2023-05-04T20:24:45.816Z,16.00
2023-05-04T20:29:49.933Z,15.81
2023-05-04T20:34:54.619Z,15.71
2023-05-04T20:39:58.022Z,15.54
2023-05-04T20:45:03.444Z,15.49
2023-05-04T20:50:10.227Z,15.43
2023-05-04T20:55:13.356Z,15.36
2023-05-04T21:00:18.913Z,15.23
2023-05-04T21:05:22.273Z,15.09
2023-05-04T21:10:25.062Z,14.96
2023-05-04T21:15:29.116Z,14.71
2023-05-04T21:20:31.880Z,14.55
2023-05-04T21:25:34.591Z,14.40
2023-05-04T21:30:41.593Z,14.26
2023-05-04T21:35:44.829Z,14.11
2023-05-04T21:40:47.741Z,14.00
2023-05-04T21:45:51.789Z,13.89
2023-05-04T21:50:54.536Z,13.82
2023-05-04T21:55:57.246Z,13.63
2023-05-04T22:01:01.631Z,13.57
2023-05-04T22:06:04.838Z,13.53
2023-05-04T22:11:07.902Z,13.37
2023-05-04T22:16:12.076Z,13.22
2023-05-04T22:21:14.863Z,13.11
2023-05-04T22:26:18.096Z,13.05
2023-05-04T22:31:22.293Z,13.00
2023-05-04T22:36:25.149Z,13.01
2023-05-04T22:41:27.958Z,12.95
2023-05-04T22:46:32.113Z,13.04
2023-05-04T22:51:35.075Z,13.05
2023-05-04T22:56:37.871Z,13.09
2023-05-04T23:01:43.310Z,13.06
2023-05-04T23:06:46.906Z,13.06
2023-05-04T23:11:49.668Z,13.06
2023-05-04T23:16:53.942Z,13.05
2023-05-04T23:21:57.391Z,13.04
2023-05-04T23:27:00.094Z,12.97
2023-05-04T23:32:04.359Z,12.94
2023-05-04T23:37:07.324Z,12.87
2023-05-04T23:42:10.187Z,12.88
2023-05-04T23:47:14.628Z,12.85
2023-05-04T23:52:18.323Z,12.86
2023-05-04T23:57:21.265Z,12.87
